Time;durP1;ratioP1;P1;durP2;ratioP2;P2;SDS_P1;SDS_P2;PMS_P1;PMS_P2;Temp;Humidity;BMP_temperature;BMP_pressure;BME280_temperature;BME280_humidity;BME280_pressure;Samples;Min_cycle;Max_cycle;Signal;HPM_P1;HPM_P2
2023/10/19 00:00:39;;;;;;;12.23;10.77;;;8.80;99.90;;;;;;5132002;27;20052;-70
2023/10/19 00:03:06;;;;;;;12.82;10.50;;;8.80;99.90;;;;;;5133915;27;20053;-70
2023/10/19 00:05:35;;;;;;;12.43;10.90;;;8.80;99.90;;;;;;5097359;28;20071;-70
2023/10/19 00:08:15;;;;;;;13.10;11.07;;;8.80;99.90;;;;;;5100979;28;20256;-70
2023/10/19 00:10:43;;;;;;;12.93;10.50;;;8.80;99.90;;;;;;5096931;28;20048;-70
2023/10/19 00:13:11;;;;;;;13.60;10.55;;;8.80;99.90;;;;;;5101928;28;20092;-70
2023/10/19 00:15:47;;;;;;;15.45;10.55;;;8.80;99.90;;;;;;5103049;28;20070;-70
2023/10/19 00:23:13;;;;;;;13.43;11.05;;;8.80;99.90;;;;;;5133164;27;20039;-70
2023/10/19 00:25:41;;;;;;;14.13;11.90;;;8.80;99.90;;;;;;5108372;27;20039;-70
2023/10/19 00:28:12;;;;;;;16.52;12.30;;;8.80;99.90;;;;;;5109397;27;20035;-70
2023/10/19 00:30:39;;;;;;;15.10;13.10;;;8.80;99.90;;;;;;5110727;27;20151;-70
2023/10/19 00:33:09;;;;;;;14.50;12.32;;;8.70;99.90;;;;;;5106635;27;20078;-70
2023/10/19 00:35:35;;;;;;;13.23;11.50;;;8.80;99.90;;;;;;5125842;27;20044;-70
2023/10/19 00:41:04;;;;;;;14.48;12.05;;;8.70;99.90;;;;;;5109378;27;20044;-70
2023/10/19 00:43:33;;;;;;;15.63;12.73;;;8.70;99.90;;;;;;5111400;28;20136;-70
2023/10/19 00:46:01;;;;;;;15.48;12.23;;;8.70;99.90;;;;;;5105170;28;20044;-70
2023/10/19 00:48:27;;;;;;;15.50;13.48;;;8.70;99.90;;;;;;5138761;27;20059;-70
2023/10/19 00:51:06;;;;;;;16.67;13.27;;;8.70;99.90;;;;;;5109678;27;20130;-70
2023/10/19 00:53:34;;;;;;;15.77;12.90;;;8.70;99.90;;;;;;5108579;28;20105;-70
2023/10/19 00:56:05;;;;;;;14.98;12.75;;;8.70;99.90;;;;;;5106394;27;20044;-70
2023/10/19 00:58:31;;;;;;;18.42;12.52;;;8.80;99.90;;;;;;5107806;27;20122;-70
2023/10/19 01:00:59;;;;;;;14.43;12.48;;;8.80;99.90;;;;;;5138827;27;20044;-70
2023/10/19 01:03:31;;;;;;;17.02;13.45;;;8.70;99.90;;;;;;5108539;28;20136;-70
2023/10/19 01:05:58;;;;;;;16.20;14.27;;;8.70;99.90;;;;;;5139230;27;21860;-70
2023/10/19 01:08:24;;;;;;;24.15;13.55;;;8.60;99.90;;;;;;5107428;28;20408;-70
2023/10/19 01:10:52;;;;;;;17.10;13.18;;;8.80;99.90;;;;;;5108654;27;20035;-69
2023/10/19 01:13:26;;;;;;;16.88;14.43;;;8.70;99.90;;;;;;5106993;27;20177;-70
2023/10/19 01:15:53;;;;;;;16.33;13.05;;;8.70;99.90;;;;;;5107924;28;20055;-70
2023/10/19 01:18:18;;;;;;;16.15;13.38;;;8.70;99.90;;;;;;5108034;27;20047;-70
2023/10/19 01:20:55;;;;;;;16.50;14.75;;;8.70;99.90;;;;;;5109508;27;20040;-70
2023/10/19 01:23:21;;;;;;;15.52;13.85;;;8.70;99.90;;;;;;5108952;27;20512;-70
2023/10/19 01:25:58;;;;;;;15.57;12.93;;;8.70;99.90;;;;;;5096067;28;20044;-70
2023/10/19 01:34:00;;;;;;;16.50;13.93;;;8.60;99.90;;;;;;5139313;27;20047;-69
2023/10/19 01:36:27;;;;;;;17.30;13.55;;;8.60;99.90;;;;;;5109105;28;20084;-70
2023/10/19 01:39:00;;;;;;;15.00;13.43;;;8.60;99.90;;;;;;5133216;27;20235;-69
2023/10/19 01:41:27;;;;;;;16.67;14.07;;;8.60;99.90;;;;;;5105296;27;20048;-69
2023/10/19 01:43:53;;;;;;;14.70;13.18;;;8.70;99.90;;;;;;5104098;27;20075;-69
2023/10/19 01:46:31;;;;;;;15.55;12.63;;;8.60;99.90;;;;;;5104313;28;20040;-69
2023/10/19 01:48:57;;;;;;;15.43;13.70;;;8.70;99.90;;;;;;5102189;28;20047;-70
2023/10/19 01:51:28;;;;;;;17.42;14.13;;;8.70;99.90;;;;;;5105629;28;20038;-70
2023/10/19 01:53:58;;;;;;;15.65;14.02;;;8.70;99.90;;;;;;5123518;27;20036;-69
2023/10/19 01:56:24;;;;;;;15.57;13.27;;;8.70;99.90;;;;;;5108137;27;20411;-70
2023/10/19 01:58:51;;;;;;;13.48;12.07;;;8.70;99.90;;;;;;5104401;27;20040;-70
2023/10/19 02:01:20;;;;;;;15.00;12.20;;;8.70;99.90;;;;;;5105403;28;20067;-69
2023/10/19 02:03:55;;;;;;;14.23;11.68;;;8.70;99.90;;;;;;5101160;28;20112;-70
2023/10/19 02:06:21;;;;;;;14.00;11.80;;;8.70;99.90;;;;;;5133006;27;20097;-70
2023/10/19 02:08:51;;;;;;;12.40;10.88;;;8.70;99.90;;;;;;5103677;28;20050;-69
2023/10/19 02:11:24;;;;;;;12.15;10.75;;;8.70;99.90;;;;;;5106829;27;20621;-70
2023/10/19 02:13:54;;;;;;;13.40;10.90;;;8.70;99.90;;;;;;5102048;28;21547;-70
2023/10/19 02:16:22;;;;;;;12.57;11.18;;;8.70;99.90;;;;;;5101321;28;20054;-70
2023/10/19 02:18:49;;;;;;;12.35;11.05;;;8.70;99.90;;;;;;5101390;27;20386;-70
2023/10/19 02:21:15;;;;;;;12.63;11.32;;;8.70;99.90;;;;;;5104437;28;20504;-70
2023/10/19 02:23:41;;;;;;;11.45;10.25;;;8.70;99.90;;;;;;5106063;28;20608;-70
2023/10/19 02:26:08;;;;;;;10.00;9.00;;;8.80;99.90;;;;;;5109160;27;20031;-70
2023/10/19 02:28:40;;;;;;;10.38;9.27;;;8.80;99.90;;;;;;5132968;27;20041;-70
2023/10/19 02:31:18;;;;;;;10.15;9.15;;;8.80;99.90;;;;;;5109617;27;20046;-70
2023/10/19 02:33:45;;;;;;;11.75;9.20;;;8.80;99.90;;;;;;5104541;27;20077;-70
2023/10/19 02:36:13;;;;;;;11.07;9.88;;;8.80;99.90;;;;;;5104072;27;20047;-70
2023/10/19 02:38:44;;;;;;;10.82;9.73;;;8.80;99.90;;;;;;5133492;27;20047;-70
2023/10/19 02:41:10;;;;;;;10.20;9.13;;;8.80;99.90;;;;;;5099476;27;20047;-70
2023/10/19 02:43:40;;;;;;;9.93;8.82;;;8.80;99.90;;;;;;5105196;27;20123;-70
2023/10/19 02:46:06;;;;;;;10.40;9.40;;;8.90;99.90;;;;;;5104184;28;20050;-70
2023/10/19 02:48:32;;;;;;;9.90;8.90;;;8.90;99.90;;;;;;5103164;27;20477;-70
2023/10/19 02:51:05;;;;;;;9.50;8.60;;;8.90;99.90;;;;;;5100112;27;20039;-70
2023/10/19 02:53:32;;;;;;;9.70;8.80;;;8.90;99.90;;;;;;5102444;28;20055;-70
2023/10/19 02:56:01;;;;;;;11.15;9.48;;;8.90;99.90;;;;;;5100645;28;20090;-70
2023/10/19 02:58:28;;;;;;;10.52;9.52;;;8.90;99.90;;;;;;5103539;28;20047;-70
2023/10/19 03:00:54;;;;;;;10.60;9.60;;;8.90;99.90;;;;;;5100828;27;20143;-70
2023/10/19 03:03:20;;;;;;;9.85;8.50;;;8.90;99.90;;;;;;5101586;27;20615;-70
2023/10/19 03:05:46;;;;;;;10.40;9.32;;;8.90;99.90;;;;;;5108714;27;20127;-70
2023/10/19 03:08:15;;;;;;;10.00;9.00;;;8.90;99.90;;;;;;5134243;27;20388;-70
2023/10/19 03:10:44;;;;;;;9.95;8.98;;;9.00;99.90;;;;;;5103953;27;20149;-70
2023/10/19 03:13:09;;;;;;;11.57;8.95;;;8.90;99.90;;;;;;5104844;28;21489;-70
2023/10/19 03:15:35;;;;;;;9.15;8.25;;;8.90;99.90;;;;;;5103950;27;20039;-70
2023/10/19 03:18:04;;;;;;;10.30;9.23;;;8.90;99.90;;;;;;5103309;27;20062;-70
2023/10/19 03:20:33;;;;;;;9.73;8.73;;;9.00;99.90;;;;;;5102411;28;20105;-70
2023/10/19 03:23:01;;;;;;;10.23;9.20;;;8.90;99.90;;;;;;5105886;27;20031;-70
2023/10/19 03:28:11;;;;;;;9.85;8.88;;;9.00;99.90;;;;;;5136752;27;20067;-70
2023/10/19 03:30:40;;;;;;;10.30;9.25;;;8.90;99.90;;;;;;5104283;27;20063;-70
2023/10/19 03:33:11;;;;;;;10.32;9.20;;;9.00;99.90;;;;;;5100212;28;20173;-70
2023/10/19 03:35:41;;;;;;;9.80;8.52;;;9.00;99.90;;;;;;5101936;28;20048;-70
2023/10/19 03:38:14;;;;;;;9.00;8.10;;;9.00;99.90;;;;;;5102324;28;20047;-70
2023/10/19 03:40:41;;;;;;;10.82;8.55;;;9.00;99.90;;;;;;5100181;27;21337;-70
2023/10/19 03:43:16;;;;;;;10.15;8.55;;;9.00;99.90;;;;;;5134872;27;20039;-70
2023/10/19 03:45:48;;;;;;;;;;;9.00;99.90;;;;;;5102783;28;20040;-70
2023/10/19 03:48:16;;;;;;;10.00;8.13;;;9.00;99.90;;;;;;5103252;27;19955;-70
2023/10/19 03:50:42;;;;;;;9.35;8.25;;;9.00;99.90;;;;;;5102575;28;20055;-70
2023/10/19 03:53:12;;;;;;;8.88;7.97;;;9.20;99.90;;;;;;5101862;28;20059;-70
2023/10/19 03:55:38;;;;;;;8.88;7.97;;;9.10;99.90;;;;;;5101730;28;20127;-70
2023/10/19 03:58:04;;;;;;;8.93;8.02;;;9.00;99.90;;;;;;5100353;28;20031;-70
2023/10/19 04:00:33;;;;;;;8.73;7.93;;;9.10;99.90;;;;;;5130508;27;20048;-70
2023/10/19 04:02:59;;;;;;;9.48;8.57;;;9.00;99.90;;;;;;5103790;27;20069;-70
2023/10/19 04:05:26;;;;;;;9.00;8.10;;;9.00;99.90;;;;;;5133323;27;20050;-70
2023/10/19 04:07:55;;;;;;;9.30;8.35;;;9.00;99.90;;;;;;5104595;27;20035;-70
2023/10/19 04:10:38;;;;;;;9.57;8.68;;;9.00;99.90;;;;;;5102003;28;20379;-70
2023/10/19 04:13:09;;;;;;;9.52;8.63;;;9.10;99.90;;;;;;5098906;28;20047;-70
2023/10/19 04:15:35;;;;;;;8.68;7.80;;;9.00;99.90;;;;;;5104968;28;20100;-70
2023/10/19 04:18:02;;;;;;;9.32;8.43;;;9.00;99.90;;;;;;5099123;28;20049;-70
2023/10/19 04:21:09;;;;;;;10.90;9.57;;;9.10;99.90;;;;;;5099104;28;20047;-70
2023/10/19 04:23:16;;;;;;;9.13;8.32;;;9.10;99.90;;;;;;5089202;28;20036;-70
2023/10/19 04:25:42;;;;;;;8.65;7.85;;;9.10;99.90;;;;;;5102540;28;20051;-70
2023/10/19 04:28:09;;;;;;;9.10;8.20;;;9.10;99.90;;;;;;5101404;28;20379;-70
2023/10/19 04:30:36;;;;;;;8.77;7.90;;;9.10;99.90;;;;;;5098585;28;20043;-70
2023/10/19 04:33:02;;;;;;;8.90;8.00;;;9.20;99.90;;;;;;5103092;28;20054;-70
2023/10/19 04:35:34;;;;;;;8.65;7.85;;;9.10;99.90;;;;;;5101573;28;20032;-70
2023/10/19 04:37:59;;;;;;;9.00;8.10;;;9.10;99.90;;;;;;5102770;28;21700;-70
2023/10/19 04:40:27;;;;;;;9.35;8.55;;;9.10;99.90;;;;;;5101644;28;20058;-70
2023/10/19 04:42:54;;;;;;;8.90;8.02;;;9.20;99.90;;;;;;5100529;28;20035;-70
2023/10/19 04:45:20;;;;;;;10.00;9.00;;;9.20;99.90;;;;;;5098626;28;20089;-70
2023/10/19 04:47:49;;;;;;;9.65;8.75;;;9.20;99.90;;;;;;5099114;28;20040;-70
2023/10/19 04:50:16;;;;;;;9.40;8.52;;;9.30;99.90;;;;;;5102679;28;20048;-70
2023/10/19 04:52:41;;;;;;;9.43;8.52;;;9.20;99.90;;;;;;5100053;28;20040;-70
2023/10/19 04:55:07;;;;;;;9.43;8.48;;;9.20;99.90;;;;;;5098862;28;20534;-70
2023/10/19 04:57:33;;;;;;;9.00;8.18;;;9.30;99.90;;;;;;5100475;28;20052;-70
2023/10/19 04:59:59;;;;;;;10.43;9.05;;;9.20;99.90;;;;;;5094908;28;20126;-70
2023/10/19 05:02:24;;;;;;;11.05;9.93;;;9.30;99.90;;;;;;5098505;28;20024;-70
2023/10/19 05:04:50;;;;;;;9.77;8.77;;;9.30;99.90;;;;;;5100490;28;20416;-70
2023/10/19 05:07:19;;;;;;;10.25;9.25;;;9.30;99.90;;;;;;5103759;28;20035;-70
2023/10/19 05:09:45;;;;;;;10.57;9.57;;;9.30;99.90;;;;;;5103089;28;20044;-70
2023/10/19 05:12:11;;;;;;;11.05;10.05;;;9.30;99.90;;;;;;5107983;27;20909;-70
2023/10/19 05:14:41;;;;;;;10.70;9.70;;;9.40;99.90;;;;;;5106228;27;20424;-70
2023/10/19 05:17:09;;;;;;;9.73;8.77;;;9.40;99.90;;;;;;5117904;27;20284;-70
2023/10/19 05:19:35;;;;;;;10.82;9.70;;;9.40;99.90;;;;;;5100953;27;20146;-70
2023/10/19 05:22:04;;;;;;;11.50;10.40;;;9.40;99.90;;;;;;5104237;27;20382;-70
2023/10/19 05:24:30;;;;;;;10.30;9.35;;;9.40;99.90;;;;;;5125453;27;20155;-69
2023/10/19 05:26:56;;;;;;;10.40;9.40;;;9.50;99.90;;;;;;5109718;27;20524;-69
2023/10/19 05:29:23;;;;;;;10.18;9.18;;;9.40;99.90;;;;;;5105871;27;20111;-69
2023/10/19 05:31:53;;;;;;;10.30;9.30;;;9.40;99.90;;;;;;5107375;27;20047;-69
2023/10/19 05:34:20;;;;;;;9.35;8.55;;;9.50;99.90;;;;;;5104703;28;20063;-69
2023/10/19 05:36:48;;;;;;;9.88;8.90;;;9.50;99.90;;;;;;5105765;27;20397;-69
2023/10/19 05:39:14;;;;;;;9.80;8.40;;;9.50;99.90;;;;;;5104604;27;20099;-69
2023/10/19 05:41:40;;;;;;;10.07;9.07;;;9.40;99.90;;;;;;5103724;27;20043;-69
2023/10/19 05:44:06;;;;;;;9.27;8.43;;;9.40;99.90;;;;;;5104055;27;20082;-69
2023/10/19 05:46:31;;;;;;;8.60;7.80;;;9.40;99.90;;;;;;5106765;27;20406;-69
2023/10/19 05:48:57;;;;;;;9.10;8.10;;;9.50;99.90;;;;;;5133696;27;20051;-69
2023/10/19 05:51:24;;;;;;;9.10;8.25;;;9.50;99.90;;;;;;5107889;27;20453;-69
2023/10/19 05:53:50;;;;;;;8.25;7.53;;;9.50;99.90;;;;;;5101500;27;20092;-69
2023/10/19 05:56:17;;;;;;;8.63;7.82;;;9.50;99.90;;;;;;5102619;27;20038;-69
2023/10/19 05:58:44;;;;;;;8.32;7.53;;;9.50;99.90;;;;;;5102289;28;20055;-69
2023/10/19 06:01:10;;;;;;;8.10;7.32;;;9.50;99.90;;;;;;5103186;27;20047;-69
2023/10/19 06:03:35;;;;;;;8.20;7.50;;;9.50;99.90;;;;;;5098430;28;20477;-69
2023/10/19 06:06:01;;;;;;;7.90;7.20;;;9.40;99.90;;;;;;5135580;27;20039;-68
2023/10/19 06:08:28;;;;;;;7.63;6.93;;;9.50;99.90;;;;;;5131745;27;20108;-68
2023/10/19 06:10:54;;;;;;;8.15;7.35;;;9.40;99.90;;;;;;5100296;27;20054;-69
2023/10/19 06:13:21;;;;;;;7.25;6.63;;;9.50;99.90;;;;;;5100276;27;20047;-69
2023/10/19 06:15:48;;;;;;;6.82;6.22;;;9.40;99.90;;;;;;5101411;27;20134;-69
2023/10/19 06:18:14;;;;;;;6.72;6.13;;;9.50;99.90;;;;;;5098477;28;20510;-69
2023/10/19 06:20:47;;;;;;;7.20;6.60;;;9.40;99.90;;;;;;5101229;27;20168;-69
2023/10/19 06:23:13;;;;;;;7.38;6.63;;;9.50;99.90;;;;;;5101655;28;20439;-69
2023/10/19 06:25:39;;;;;;;6.95;6.35;;;9.40;99.90;;;;;;5099603;27;20036;-68
2023/10/19 06:28:05;;;;;;;7.60;6.97;;;9.50;99.90;;;;;;5096404;28;20032;-69
2023/10/19 06:30:31;;;;;;;7.82;7.10;;;9.50;99.90;;;;;;5094515;28;20039;-68
2023/10/19 06:33:02;;;;;;;7.15;6.55;;;9.50;99.90;;;;;;5097871;28;20089;-68
2023/10/19 06:35:29;;;;;;;6.47;5.88;;;9.50;99.90;;;;;;5095146;28;20059;-69
2023/10/19 06:37:55;;;;;;;7.03;6.40;;;9.60;99.90;;;;;;5100810;27;20038;-69
2023/10/19 06:40:22;;;;;;;6.50;5.90;;;9.60;99.90;;;;;;5104571;28;20725;-69
2023/10/19 06:42:49;;;;;;;6.35;5.80;;;9.60;99.90;;;;;;5100945;27;20485;-69
2023/10/19 06:45:15;;;;;;;6.22;5.63;;;9.60;99.90;;;;;;5129673;27;20039;-69
2023/10/19 06:47:47;;;;;;;6.35;5.80;;;9.60;99.90;;;;;;5100341;28;20054;-69
2023/10/19 06:50:15;;;;;;;6.65;6.05;;;9.70;99.90;;;;;;5100803;28;20052;-69
2023/10/19 06:52:42;;;;;;;6.35;5.75;;;9.60;99.90;;;;;;5118262;27;20039;-68
2023/10/19 06:55:22;;;;;;;6.13;5.63;;;9.70;99.90;;;;;;5102294;28;20531;-68
2023/10/19 06:57:53;;;;;;;6.07;5.50;;;9.70;99.90;;;;;;5102828;27;20075;-68
2023/10/19 07:00:21;;;;;;;6.00;5.47;;;9.80;99.90;;;;;;5099638;28;20051;-68
2023/10/19 07:02:51;;;;;;;6.25;5.40;;;9.70;99.90;;;;;;5130982;27;20062;-69
2023/10/19 07:05:20;;;;;;;5.93;5.43;;;9.70;99.90;;;;;;5101858;28;20537;-69
2023/10/19 07:07:46;;;;;;;6.03;5.43;;;9.80;99.90;;;;;;5100150;28;20043;-69
2023/10/19 07:10:13;;;;;;;6.50;5.95;;;9.80;99.90;;;;;;5131316;27;21207;-69
2023/10/19 07:12:43;;;;;;;5.72;5.25;;;9.70;99.90;;;;;;5103075;27;20070;-69
2023/10/19 07:15:13;;;;;;;5.82;5.32;;;9.70;99.90;;;;;;5102192;27;20396;-69
2023/10/19 07:17:43;;;;;;;6.47;5.88;;;9.70;99.90;;;;;;5103880;27;20027;-69
2023/10/19 07:20:25;;;;;;;6.07;5.57;;;9.80;99.90;;;;;;5101873;28;20075;-68
2023/10/19 07:23:00;;;;;;;6.07;5.50;;;9.80;99.90;;;;;;5097425;28;20264;-68
2023/10/19 07:25:26;;;;;;;7.05;5.88;;;9.80;99.90;;;;;;5101758;27;20122;-68
2023/10/19 07:27:52;;;;;;;6.07;5.57;;;9.80;99.90;;;;;;5101658;27;20400;-68
2023/10/19 07:30:26;;;;;;;6.38;5.78;;;9.80;99.90;;;;;;5103587;27;20072;-68
2023/10/19 07:32:58;;;;;;;6.80;6.20;;;9.90;99.90;;;;;;5098963;27;20039;-68
2023/10/19 07:35:26;;;;;;;6.65;5.97;;;9.90;99.90;;;;;;5098930;28;20050;-68
2023/10/19 07:37:52;;;;;;;6.53;6.00;;;9.90;99.90;;;;;;5098156;28;20392;-69
2023/10/19 07:40:18;;;;;;;6.32;5.82;;;9.90;99.90;;;;;;5131602;27;20089;-69
2023/10/19 07:42:45;;;;;;;7.75;6.18;;;9.90;99.90;;;;;;5099915;28;20105;-68
2023/10/19 07:45:13;;;;;;;8.15;6.72;;;9.90;99.90;;;;;;5104150;27;20127;-68
2023/10/19 07:47:40;;;;;;;7.05;6.45;;;10.00;99.90;;;;;;5105395;27;20046;-68
2023/10/19 07:50:15;;;;;;;6.90;6.30;;;9.90;99.90;;;;;;5100262;28;20045;-68
2023/10/19 07:52:47;;;;;;;6.82;6.22;;;10.00;99.90;;;;;;5097959;28;20040;-68
2023/10/19 07:55:12;;;;;;;7.40;6.75;;;9.90;99.90;;;;;;5102336;28;20401;-68
2023/10/19 07:57:40;;;;;;;6.75;6.15;;;10.00;99.90;;;;;;5099146;28;20040;-68
2023/10/19 08:00:08;;;;;;;7.45;6.85;;;10.00;99.90;;;;;;5098366;28;20142;-68
2023/10/19 08:02:37;;;;;;;6.80;6.20;;;10.10;99.90;;;;;;5097888;28;20047;-68
2023/10/19 08:05:06;;;;;;;7.93;7.22;;;10.10;99.90;;;;;;5134015;27;20051;-68
2023/10/19 08:07:32;;;;;;;7.97;7.18;;;10.10;99.90;;;;;;5098321;28;20097;-68
2023/10/19 08:09:58;;;;;;;11.00;8.27;;;10.10;99.90;;;;;;5097649;27;20051;-68
2023/10/19 08:12:26;;;;;;;13.00;9.30;;;10.20;99.90;;;;;;5099272;28;20046;-68
2023/10/19 08:14:55;;;;;;;9.00;8.10;;;10.20;99.90;;;;;;5095041;27;20077;-68
2023/10/19 08:17:21;;;;;;;10.23;7.65;;;10.30;99.90;;;;;;5100257;28;20048;-68
2023/10/19 08:19:47;;;;;;;9.63;7.70;;;10.20;99.90;;;;;;5094945;28;20048;-68
2023/10/19 08:22:14;;;;;;;9.02;8.13;;;10.20;99.90;;;;;;5098101;28;20040;-68
2023/10/19 08:24:43;;;;;;;9.35;8.40;;;10.20;99.90;;;;;;5094864;28;20077;-68
2023/10/19 08:27:10;;;;;;;8.88;8.07;;;10.30;99.90;;;;;;5098091;28;20063;-68
2023/10/19 08:29:37;;;;;;;8.98;8.07;;;10.30;99.90;;;;;;5102676;28;20075;-68
2023/10/19 08:32:02;;;;;;;10.80;7.97;;;10.30;99.90;;;;;;5096485;28;20046;-68
2023/10/19 08:34:29;;;;;;;9.65;8.70;;;10.30;99.90;;;;;;5095833;28;20036;-68
2023/10/19 08:36:56;;;;;;;10.65;8.70;;;10.30;99.90;;;;;;5099980;28;20055;-68
2023/10/19 08:39:24;;;;;;;9.13;8.23;;;10.40;99.90;;;;;;5096724;28;20119;-68
2023/10/19 08:41:53;;;;;;;10.07;8.65;;;10.40;99.90;;;;;;5099388;28;20035;-68
2023/10/19 08:44:19;;;;;;;11.23;9.20;;;10.40;99.90;;;;;;5088000;28;20044;-68
2023/10/19 08:46:47;;;;;;;11.10;9.43;;;10.40;99.90;;;;;;5101233;28;20039;-69
2023/10/19 08:49:14;;;;;;;13.88;9.75;;;10.40;99.90;;;;;;5135885;27;20051;-69
2023/10/19 08:51:44;;;;;;;11.20;9.65;;;10.40;99.90;;;;;;5137166;27;20072;-69
2023/10/19 08:54:11;;;;;;;10.10;9.02;;;10.50;99.90;;;;;;5100906;28;20519;-69
2023/10/19 08:56:38;;;;;;;9.30;8.27;;;10.40;99.90;;;;;;5100092;28;20048;-69
2023/10/19 08:59:03;;;;;;;9.18;8.13;;;10.40;99.90;;;;;;5101091;27;20421;-69
2023/10/19 09:01:29;;;;;;;12.30;8.02;;;10.40;99.90;;;;;;5105722;27;20260;-69
2023/10/19 09:03:58;;;;;;;13.10;8.60;;;10.40;99.90;;;;;;5101313;27;20032;-69
2023/10/19 09:06:25;;;;;;;10.02;7.93;;;10.50;99.90;;;;;;5101844;27;20414;-69
2023/10/19 09:08:51;;;;;;;10.52;8.75;;;10.50;99.90;;;;;;5114874;27;20047;-69
2023/10/19 09:11:20;;;;;;;10.18;9.07;;;10.40;99.90;;;;;;5108081;28;20378;-69
2023/10/19 09:13:48;;;;;;;10.52;8.75;;;10.60;99.90;;;;;;5102345;28;20051;-69
2023/10/19 09:16:19;;;;;;;12.20;8.63;;;10.50;99.90;;;;;;5103491;27;20040;-69
2023/10/19 09:18:49;;;;;;;9.93;8.43;;;10.50;99.90;;;;;;5133838;27;20079;-69
2023/10/19 09:21:24;;;;;;;11.57;9.95;;;10.50;99.90;;;;;;5100181;27;20088;-69
2023/10/19 09:23:51;;;;;;;15.13;9.57;;;10.50;99.90;;;;;;5098606;27;20062;-69
2023/10/19 09:26:18;;;;;;;9.77;8.77;;;10.50;99.90;;;;;;5101902;27;20050;-69
2023/10/19 09:28:47;;;;;;;12.93;10.20;;;10.50;99.90;;;;;;5097448;27;20051;-69
2023/10/19 09:31:13;;;;;;;13.35;9.63;;;10.50;99.90;;;;;;5102569;27;20036;-69
2023/10/19 09:33:41;;;;;;;11.80;9.68;;;10.60;99.90;;;;;;5101953;28;20519;-69
2023/10/19 09:36:15;;;;;;;10.63;9.48;;;10.60;99.90;;;;;;5103199;27;20389;-69
2023/10/19 09:38:43;;;;;;;11.10;9.88;;;10.70;99.90;;;;;;5103096;27;20476;-69
2023/10/19 09:41:12;;;;;;;10.75;9.63;;;10.70;99.90;;;;;;5131844;27;20044;-69
2023/10/19 09:43:42;;;;;;;14.45;10.43;;;10.70;99.90;;;;;;5099858;28;20043;-69
2023/10/19 09:46:09;;;;;;;13.02;10.32;;;10.80;99.90;;;;;;5104355;27;20075;-69
2023/10/19 09:49:01;;;;;;;15.52;10.55;;;10.80;99.90;;;;;;5105609;27;20058;-69
2023/10/19 09:51:28;;;;;;;13.05;10.00;;;10.80;99.90;;;;;;5102031;27;20389;-69
2023/10/19 09:54:19;;;;;;;13.13;10.32;;;10.80;99.90;;;;;;5131187;27;20176;-69
2023/10/19 09:56:52;;;;;;;12.13;10.30;;;10.80;99.90;;;;;;5100362;28;20054;-69
2023/10/19 09:59:38;;;;;;;12.18;10.38;;;10.90;99.90;;;;;;5097206;28;20108;-69
2023/10/19 10:02:15;;;;;;;;;;;10.90;99.90;;;;;;5098486;28;20082;-69
2023/10/19 10:04:41;;;;;;;12.27;10.98;;;10.90;99.90;;;;;;5103327;27;20465;-69
2023/10/19 10:07:09;;;;;;;11.73;10.35;;;10.90;99.90;;;;;;5130979;27;20071;-69
2023/10/19 10:09:40;;;;;;;12.25;10.95;;;10.90;99.90;;;;;;5100340;28;20040;-69
2023/10/19 10:12:23;;;;;;;12.82;10.60;;;10.90;99.90;;;;;;5106106;27;20436;-69
2023/10/19 10:15:07;;;;;;;11.25;10.15;;;11.00;99.90;;;;;;5109033;27;20366;-69
2023/10/19 10:17:34;;;;;;;12.90;10.43;;;10.90;99.90;;;;;;5101027;28;20050;-69
2023/10/19 10:20:13;;;;;;;13.18;11.25;;;11.00;99.90;;;;;;5102641;27;20494;-69
2023/10/19 10:22:39;;;;;;;11.95;10.40;;;11.00;99.90;;;;;;5134540;27;20119;-69
2023/10/19 10:25:07;;;;;;;11.98;10.63;;;11.10;99.90;;;;;;5105529;27;20524;-69
2023/10/19 10:27:36;;;;;;;12.45;11.20;;;11.10;99.90;;;;;;5121541;27;20048;-69
2023/10/19 10:30:07;;;;;;;12.75;11.45;;;11.20;99.90;;;;;;5104254;27;20087;-69
2023/10/19 10:32:54;;;;;;;14.65;11.20;;;11.20;99.90;;;;;;5099222;27;20050;-69
2023/10/19 10:35:41;;;;;;;13.15;11.75;;;11.30;99.90;;;;;;5103357;27;20503;-69
2023/10/19 10:38:14;;;;;;;14.48;11.48;;;11.30;99.90;;;;;;5103922;27;20039;-69
2023/10/19 10:40:44;;;;;;;16.02;12.07;;;11.30;99.90;;;;;;5101861;27;20092;-70
2023/10/19 10:43:10;;;;;;;15.35;12.48;;;11.40;99.90;;;;;;5115303;27;20043;-68
2023/10/19 10:45:36;;;;;;;14.07;12.25;;;11.40;99.90;;;;;;5102345;27;20096;-68
2023/10/19 10:48:03;;;;;;;15.82;12.05;;;11.40;99.90;;;;;;5102952;28;20039;-68
2023/10/19 10:50:29;;;;;;;14.25;11.90;;;11.50;99.90;;;;;;5134644;27;20555;-68
2023/10/19 10:52:57;;;;;;;13.27;11.88;;;11.50;99.90;;;;;;5135200;27;20074;-68
2023/10/19 10:55:26;;;;;;;16.23;12.93;;;11.50;99.90;;;;;;5103677;27;20066;-69
2023/10/19 10:57:54;;;;;;;19.45;13.90;;;11.60;99.90;;;;;;5106858;27;20048;-68
2023/10/19 11:00:20;;;;;;;16.73;13.82;;;11.60;99.90;;;;;;5137024;27;20054;-68
2023/10/19 11:03:00;;;;;;;19.52;15.35;;;11.60;99.90;;;;;;5132617;27;20486;-69
2023/10/19 11:05:26;;;;;;;18.88;15.82;;;11.60;99.90;;;;;;5135791;27;20042;-68
2023/10/19 11:08:13;;;;;;;20.13;16.45;;;11.70;99.90;;;;;;5102816;27;20032;-68
2023/10/19 11:10:42;;;;;;;27.05;16.42;;;11.70;99.90;;;;;;5132883;27;20051;-68
2023/10/19 11:13:09;;;;;;;20.73;16.63;;;11.60;99.90;;;;;;5104047;27;20043;-68
2023/10/19 11:15:36;;;;;;;22.30;18.02;;;11.70;99.90;;;;;;5101530;28;20093;-68
2023/10/19 11:18:03;;;;;;;21.15;16.23;;;11.70;99.90;;;;;;5101779;28;20486;-68
2023/10/19 11:20:28;;;;;;;20.95;16.73;;;11.70;99.90;;;;;;5101462;27;20124;-68
2023/10/19 11:22:56;;;;;;;19.67;16.15;;;11.80;99.90;;;;;;5101858;28;20119;-68
2023/10/19 11:25:27;;;;;;;21.88;15.90;;;11.80;99.90;;;;;;5100679;28;20488;-68
2023/10/19 11:27:57;;;;;;;19.17;15.13;;;11.80;99.90;;;;;;5134564;27;20117;-68
2023/10/19 11:30:33;;;;;;;20.88;16.45;;;11.80;99.90;;;;;;5132609;27;20128;-68
2023/10/19 11:33:00;;;;;;;21.20;14.25;;;11.80;99.90;;;;;;5099823;27;20058;-68
2023/10/19 11:35:29;;;;;;;20.02;14.57;;;12.00;99.90;;;;;;5103241;28;20058;-68
2023/10/19 11:37:58;;;;;;;16.88;13.82;;;11.90;99.90;;;;;;5101830;27;20716;-68
2023/10/19 11:40:25;;;;;;;15.88;13.00;;;11.90;99.90;;;;;;5099717;28;20438;-68
2023/10/19 11:42:51;;;;;;;18.23;13.65;;;12.00;99.90;;;;;;5103819;28;20389;-68
2023/10/19 11:45:17;;;;;;;14.82;13.25;;;12.00;99.90;;;;;;5102323;27;20065;-68
2023/10/19 11:47:46;;;;;;;15.75;12.60;;;12.10;99.90;;;;;;5101842;28;20115;-68
2023/10/19 11:50:14;;;;;;;16.73;12.77;;;12.10;99.90;;;;;;5135054;27;20048;-68
2023/10/19 11:52:40;;;;;;;14.15;12.73;;;12.20;99.90;;;;;;5101843;27;20048;-68
2023/10/19 11:55:08;;;;;;;16.27;12.70;;;12.20;99.90;;;;;;5100600;27;20401;-69
2023/10/19 11:57:34;;;;;;;19.60;13.02;;;12.30;99.90;;;;;;5097751;28;20040;-68
2023/10/19 12:00:01;;;;;;;14.00;12.18;;;12.30;99.90;;;;;;5133248;27;20185;-68
2023/10/19 12:02:26;;;;;;;16.13;12.93;;;12.40;99.90;;;;;;5102870;28;20515;-68
2023/10/19 12:04:52;;;;;;;14.77;12.20;;;12.60;99.90;;;;;;5100131;28;20074;-68
2023/10/19 12:07:18;;;;;;;13.88;12.20;;;12.60;99.90;;;;;;5102351;28;20377;-69
2023/10/19 12:09:44;;;;;;;14.63;12.65;;;12.50;99.90;;;;;;5101528;28;20154;-68
2023/10/19 12:12:10;;;;;;;14.68;11.27;;;12.50;99.90;;;;;;5107249;27;20034;-69
2023/10/19 12:14:36;;;;;;;12.73;11.32;;;12.50;99.90;;;;;;5101804;27;20040;-69
2023/10/19 12:17:03;;;;;;;14.35;12.90;;;12.50;99.90;;;;;;5101620;28;20035;-68
2023/10/19 12:19:30;;;;;;;15.15;12.25;;;12.50;99.90;;;;;;5102104;28;20047;-69
2023/10/19 12:21:56;;;;;;;13.93;12.02;;;12.70;99.90;;;;;;5098784;28;20036;-69
2023/10/19 12:24:23;;;;;;;13.82;11.85;;;12.50;99.90;;;;;;5102127;28;20032;-68
2023/10/19 12:26:48;;;;;;;14.18;12.30;;;12.50;99.90;;;;;;5101036;28;20050;-68
2023/10/19 12:29:17;;;;;;;14.35;12.88;;;12.50;99.90;;;;;;5099512;28;20123;-68
2023/10/19 12:31:42;;;;;;;14.68;13.13;;;12.50;99.90;;;;;;5102783;28;20050;-68
2023/10/19 12:34:09;;;;;;;17.13;14.57;;;12.50;99.90;;;;;;5104354;28;20035;-68
2023/10/19 12:36:35;;;;;;;15.43;13.85;;;12.50;99.90;;;;;;5130899;27;20043;-68
2023/10/19 12:39:01;;;;;;;16.15;14.38;;;12.50;99.90;;;;;;5102760;28;20545;-68
2023/10/19 12:41:27;;;;;;;17.10;14.45;;;12.50;99.90;;;;;;5101927;27;20039;-68
2023/10/19 12:44:07;;;;;;;15.88;14.15;;;12.50;99.90;;;;;;5100515;28;20035;-68
2023/10/19 12:46:36;;;;;;;17.60;13.20;;;12.60;99.90;;;;;;5104718;28;20480;-68
2023/10/19 12:49:13;;;;;;;14.07;12.70;;;12.50;99.90;;;;;;5096105;28;20110;-68
2023/10/19 12:51:42;;;;;;;14.63;12.38;;;12.50;99.90;;;;;;5099055;28;20051;-68
2023/10/19 12:54:10;;;;;;;15.15;13.07;;;12.40;99.90;;;;;;5106268;28;20504;-68
2023/10/19 12:56:36;;;;;;;13.73;12.40;;;12.40;99.90;;;;;;5104145;27;20050;-68
2023/10/19 12:59:01;;;;;;;12.23;11.00;;;12.40;99.90;;;;;;5130980;27;20409;-68
2023/10/19 13:01:28;;;;;;;11.93;10.80;;;12.40;99.90;;;;;;5098326;28;20450;-68
2023/10/19 13:03:53;;;;;;;13.52;10.38;;;12.30;99.90;;;;;;5103872;28;20043;-68
2023/10/19 13:06:23;;;;;;;11.25;10.15;;;12.30;99.90;;;;;;5101702;28;20046;-68